KOJA

Thomas P Stafford Airport

Weatherford, Oklahoma, USA
METAR KOJA 231055Z AUTO 28004KT 10SM CLR M01/M08 A3019 RMK AO2
Observed Flight Rules
Jan-23 @ 10:55 UTC (60 minutes ago) Visual Flight Rules
Wind Visibility Clouds
280° at 4 knots 10 miles
  • Clear skies
Temperatures Readings
Current -1°C / 30°F
Dewpoint -8°C / 18°F
Humidity 59%
Altimeter 30.19" Hg
Pressure 1022 hPa
Elevation 490
METAR KOJA 231055Z AUTO 28004KT 10SM CLR M01/M08 A3019 RMK AO2
Observed Flight Rules
Jan-23 @ 10:55 UTC
(60 minutes ago)
VFR
Wind Visibility
280° at 4 knots 10 miles
Clouds
  • Clear skies
Temperature Dewpoint
-1°C / 30°F -8°C / 18°F
Humidity Altimeter Pressure
59% 30.19" Hg 1022 hPa